Time;durP1;ratioP1;P1;durP2;ratioP2;P2;SDS_P1;SDS_P2;PMS_P1;PMS_P2;Temp;Humidity;BMP_temperature;BMP_pressure;BME280_temperature;BME280_humidity;BME280_pressure;Samples;Min_cycle;Max_cycle;Signal;HPM_P1;HPM_P2
2022/04/07 00:03:25;;;;;;;4.13;2.60;;;12.20;92.10;;;;;;20993967;28;20231;-66
2022/04/07 00:13:27;;;;;;;3.87;2.63;;;12.20;92.90;;;;;;20992369;28;20215;-65
2022/04/07 00:23:29;;;;;;;4.00;2.80;;;12.20;93.00;;;;;;20986865;28;20264;-64
2022/04/07 00:33:31;;;;;;;3.00;2.23;;;12.10;93.30;;;;;;20992314;28;20212;-65
2022/04/07 00:43:34;;;;;;;3.63;2.40;;;11.90;94.00;;;;;;20992158;28;20245;-66
2022/04/07 00:53:36;;;;;;;3.03;2.20;;;12.00;94.30;;;;;;21002986;28;20679;-66
2022/04/07 01:03:38;;;;;;;3.60;2.00;;;11.90;94.40;;;;;;21005978;28;20706;-65
2022/04/07 01:13:49;;;;;;;3.37;1.83;;;11.80;94.20;;;;;;21005470;28;20562;-64
2022/04/07 01:24:04;;;;;;;2.50;2.10;;;11.80;94.20;;;;;;21004998;28;20234;-66
2022/04/07 01:34:10;;;;;;;2.20;1.90;;;11.80;94.10;;;;;;21004229;28;20215;-64
2022/04/07 01:44:12;;;;;;;9.20;2.10;;;11.80;94.20;;;;;;21006512;28;20250;-66
2022/04/07 01:54:15;;;;;;;4.57;2.33;;;11.80;93.80;;;;;;21002643;28;20205;-66
2022/04/07 02:04:17;;;;;;;2.70;2.17;;;11.80;93.60;;;;;;21001456;28;20238;-66
2022/04/07 02:14:19;;;;;;;3.13;2.30;;;11.70;93.50;;;;;;21001830;28;20207;-64
2022/04/07 02:24:21;;;;;;;3.23;2.80;;;11.70;93.70;;;;;;20993118;28;20236;-64
2022/04/07 02:34:22;;;;;;;3.43;3.00;;;11.70;93.40;;;;;;20998772;28;20691;-65
2022/04/07 02:44:24;;;;;;;5.17;2.70;;;11.70;93.40;;;;;;20997210;28;20255;-65
2022/04/07 02:54:26;;;;;;;4.53;2.90;;;11.70;93.60;;;;;;20997664;28;20210;-66
2022/04/07 03:04:28;;;;;;;4.03;2.77;;;11.70;93.10;;;;;;20997068;28;20620;-65
2022/04/07 03:14:29;;;;;;;3.90;2.47;;;11.80;92.90;;;;;;20995894;28;20290;-65
2022/04/07 03:24:31;;;;;;;2.53;2.13;;;11.80;92.80;;;;;;20995945;28;21011;-66
2022/04/07 03:34:39;;;;;;;3.70;2.00;;;11.80;92.60;;;;;;20995368;28;20244;-66
2022/04/07 03:44:41;;;;;;;4.17;1.70;;;11.90;92.80;;;;;;20995798;28;20802;-66
2022/04/07 03:54:42;;;;;;;1.40;1.30;;;11.90;92.60;;;;;;20998085;28;20662;-66
2022/04/07 04:04:44;;;;;;;2.23;1.60;;;11.90;92.40;;;;;;20995840;28;20235;-65
2022/04/07 04:14:45;;;;;;;1.60;1.50;;;11.80;92.60;;;;;;20992476;28;20268;-65
2022/04/07 04:24:48;;;;;;;1.30;1.20;;;11.70;92.70;;;;;;20993746;28;20343;-64
2022/04/07 04:34:49;;;;;;;2.37;1.60;;;11.70;92.90;;;;;;21008017;28;20217;-67
2022/04/07 04:47:03;;;;;;;2.67;1.50;;;11.70;93.40;;;;;;21068046;27;20739;-65
2022/04/07 04:57:06;;;;;;;2.43;1.70;;;11.60;93.60;;;;;;21070895;28;20311;-67
2022/04/07 05:07:08;;;;;;;1.63;1.20;;;11.60;94.00;;;;;;21063958;28;20207;-67
2022/04/07 05:17:09;;;;;;;2.70;2.40;;;11.70;93.90;;;;;;21007944;28;20573;-66
2022/04/07 05:27:11;;;;;;;3.90;1.50;;;11.60;93.00;;;;;;21019146;28;20201;-66
2022/04/07 05:37:13;;;;;;;1.60;1.50;;;11.70;93.00;;;;;;21057275;28;20216;-68
2022/04/07 05:47:14;;;;;;;1.77;1.67;;;11.70;92.90;;;;;;21057613;28;20567;-66
2022/04/07 05:57:16;;;;;;;3.23;1.40;;;11.70;93.30;;;;;;21010523;28;20597;-64
2022/04/07 06:07:18;;;;;;;1.67;1.50;;;11.70;93.40;;;;;;21004496;28;20204;-63
2022/04/07 06:17:19;;;;;;;1.83;1.37;;;11.70;93.60;;;;;;21014621;28;20214;-69
2022/04/07 06:27:21;;;;;;;1.80;1.43;;;11.70;93.80;;;;;;21002658;28;20267;-66
2022/04/07 06:37:26;;;;;;;1.63;1.40;;;11.80;93.80;;;;;;20999286;28;20250;-68
2022/04/07 06:47:27;;;;;;;2.13;1.50;;;11.90;93.70;;;;;;21000655;28;20581;-66
2022/04/07 06:57:29;;;;;;;2.63;1.17;;;12.00;93.60;;;;;;20999259;28;20250;-68
2022/04/07 07:07:31;;;;;;;2.27;1.70;;;12.00;93.40;;;;;;20925829;28;20301;-66
2022/04/07 07:17:38;;;;;;;3.23;1.93;;;12.30;93.10;;;;;;20918844;28;20241;-66
2022/04/07 07:27:44;;;;;;;2.67;2.07;;;12.40;92.60;;;;;;20993271;28;20213;-67
2022/04/07 07:37:48;;;;;;;2.27;1.40;;;12.40;92.90;;;;;;20997222;28;20242;-65
2022/04/07 07:47:53;;;;;;;1.43;1.00;;;12.50;91.90;;;;;;20997358;28;20203;-65
2022/04/07 07:57:54;;;;;;;1.67;1.17;;;12.40;92.10;;;;;;20996087;28;20296;-72
2022/04/07 08:07:56;;;;;;;1.10;1.00;;;12.40;92.50;;;;;;20995312;28;20191;-67
2022/04/07 08:17:58;;;;;;;3.50;1.20;;;12.30;92.90;;;;;;20990280;28;20238;-68
2022/04/07 08:27:59;;;;;;;0.80;0.80;;;12.40;93.20;;;;;;21002996;28;20211;-68
2022/04/07 08:38:01;;;;;;;2.30;1.10;;;12.50;93.20;;;;;;21007181;28;20231;-69
2022/04/07 08:48:05;;;;;;;1.17;0.97;;;12.40;93.00;;;;;;21011308;28;20685;-67
2022/04/07 08:58:10;;;;;;;2.03;1.00;;;12.60;92.90;;;;;;21014134;28;20223;-65
2022/04/07 09:08:12;;;;;;;2.30;0.83;;;12.70;93.00;;;;;;20998111;28;20280;-63
2022/04/07 09:18:25;;;;;;;1.13;0.90;;;12.80;92.50;;;;;;21004342;28;20231;-66
2022/04/07 09:28:28;;;;;;;3.27;2.57;;;13.00;92.40;;;;;;21010647;28;20242;-65
2022/04/07 09:38:31;;;;;;;1.70;0.87;;;13.00;92.50;;;;;;20962543;28;20313;-70
2022/04/07 09:48:33;;;;;;;0.80;0.80;;;13.20;92.10;;;;;;20922805;28;20600;-70
2022/04/07 09:58:35;;;;;;;0.77;0.77;;;13.30;91.90;;;;;;20922410;28;20633;-62
2022/04/07 10:08:39;;;;;;;0.70;0.70;;;13.40;92.10;;;;;;20923945;28;20296;-63
2022/04/07 10:18:51;;;;;;;1.33;0.70;;;13.50;90.90;;;;;;20922939;28;20734;-62
2022/04/07 10:28:55;;;;;;;0.90;0.60;;;13.50;90.80;;;;;;20974953;28;20665;-62
2022/04/07 10:38:57;;;;;;;0.80;0.67;;;13.50;91.10;;;;;;20998237;28;20454;-64
2022/04/07 10:49:04;;;;;;;0.73;0.70;;;13.80;90.70;;;;;;21015370;28;20241;-64
2022/04/07 10:59:12;;;;;;;1.37;0.70;;;13.80;91.10;;;;;;21012276;28;20267;-63
2022/04/07 11:09:14;;;;;;;1.07;0.70;;;13.80;91.60;;;;;;20994038;28;20201;-65
2022/04/07 11:19:55;;;;;;;0.70;0.70;;;13.80;91.70;;;;;;21000194;28;20273;-65
2022/04/07 11:30:04;;;;;;;2.57;0.70;;;13.70;91.90;;;;;;20997888;28;20208;-64
2022/04/07 11:40:06;;;;;;;1.93;0.70;;;13.80;92.10;;;;;;20997624;28;20253;-65
2022/04/07 11:50:09;;;;;;;1.40;0.70;;;13.80;91.70;;;;;;20994943;28;20213;-65
2022/04/07 12:00:14;;;;;;;1.83;1.27;;;13.90;91.60;;;;;;20995876;28;20278;-66
2022/04/07 12:10:16;;;;;;;1.30;0.67;;;13.70;92.20;;;;;;20995725;28;20206;-68
2022/04/07 12:20:21;;;;;;;0.90;0.80;;;13.80;92.40;;;;;;20994219;28;20283;-63
2022/04/07 12:30:47;;;;;;;1.10;0.83;;;13.90;92.70;;;;;;20993825;28;20227;-65
2022/04/07 12:40:49;;;;;;;0.70;0.70;;;14.00;92.30;;;;;;20993949;28;20245;-65
2022/04/07 12:50:52;;;;;;;1.40;0.80;;;14.00;92.10;;;;;;20953494;28;20213;-66
2022/04/07 13:01:00;;;;;;;3.87;1.20;;;14.10;91.30;;;;;;20994971;28;20235;-68
2022/04/07 13:11:02;;;;;;;0.70;0.70;;;14.30;90.60;;;;;;21006934;28;20288;-66
2022/04/07 13:21:04;;;;;;;0.83;0.60;;;14.50;90.10;;;;;;21008217;28;20236;-67
2022/04/07 13:31:05;;;;;;;2.37;0.60;;;14.60;89.40;;;;;;21007821;28;20657;-66
2022/04/07 13:41:07;;;;;;;3.13;0.67;;;14.80;88.50;;;;;;21007633;28;20705;-68
2022/04/07 13:51:09;;;;;;;1.10;0.60;;;15.00;88.30;;;;;;21010737;28;20216;-65
2022/04/07 14:01:12;;;;;;;1.60;0.70;;;15.10;88.60;;;;;;21008544;28;20304;-67
2022/04/07 14:11:15;;;;;;;3.70;0.67;;;14.90;90.40;;;;;;21000752;28;20582;-63
2022/04/07 14:21:21;;;;;;;2.50;0.77;;;14.60;91.50;;;;;;21004345;28;20325;-65
2022/04/07 14:31:22;;;;;;;3.17;0.90;;;14.20;93.20;;;;;;21002365;28;20266;-68
2022/04/07 14:41:24;;;;;;;3.60;1.17;;;13.90;94.40;;;;;;21001800;28;20278;-69
2022/04/07 14:51:28;;;;;;;2.30;0.90;;;13.60;95.80;;;;;;21001675;28;20547;-63
2022/04/07 15:01:31;;;;;;;1.43;0.70;;;13.40;97.70;;;;;;20999631;28;20318;-65
2022/04/07 15:11:34;;;;;;;2.00;0.80;;;13.40;97.70;;;;;;20967019;28;20234;-65
2022/04/07 15:21:36;;;;;;;0.97;0.80;;;13.40;98.00;;;;;;20949410;28;20238;-63
2022/04/07 15:31:38;;;;;;;1.27;0.70;;;13.60;98.10;;;;;;21074595;28;20233;-66
2022/04/07 15:42:35;;;;;;;1.90;0.90;;;13.60;97.60;;;;;;20967134;28;20585;-62
2022/04/07 15:52:38;;;;;;;1.17;0.90;;;13.50;97.60;;;;;;20976575;28;20207;-63
2022/04/07 16:02:40;;;;;;;1.13;0.87;;;13.30;97.60;;;;;;20948430;28;20638;-66
2022/04/07 16:12:43;;;;;;;2.00;1.10;;;13.20;97.60;;;;;;20938016;28;20211;-64
2022/04/07 16:22:45;;;;;;;1.17;0.70;;;13.20;98.00;;;;;;20981145;28;20219;-64
2022/04/07 16:32:50;;;;;;;0.97;0.90;;;12.90;98.00;;;;;;20938631;28;20291;-65
2022/04/07 16:42:52;;;;;;;1.77;1.00;;;13.30;97.20;;;;;;20977862;28;20245;-63
2022/04/07 16:52:54;;;;;;;2.53;1.30;;;13.40;95.40;;;;;;20854793;28;20207;-63
2022/04/07 17:02:57;;;;;;;4.53;1.20;;;13.20;92.60;;;;;;20842865;28;20294;-65
2022/04/07 17:13:01;;;;;;;3.43;1.30;;;13.10;87.40;;;;;;20843377;28;20231;-68
2022/04/07 17:23:02;;;;;;;2.23;1.33;;;12.90;77.40;;;;;;20838935;28;20684;-67
2022/04/07 17:33:05;;;;;;;3.80;1.27;;;12.90;77.90;;;;;;20837740;28;20602;-67
2022/04/07 17:43:10;;;;;;;7.40;1.60;;;12.80;72.40;;;;;;20837311;28;20237;-70
2022/04/07 17:53:12;;;;;;;3.27;1.30;;;12.70;71.50;;;;;;20835534;28;20265;-67
2022/04/07 18:03:14;;;;;;;3.17;1.43;;;12.70;70.50;;;;;;20871151;28;20301;-64
2022/04/07 18:13:16;;;;;;;4.47;1.43;;;12.60;70.50;;;;;;20917177;28;20234;-64
2022/04/07 18:23:18;;;;;;;2.20;1.20;;;12.60;71.30;;;;;;20910764;28;20680;-66
2022/04/07 18:33:20;;;;;;;3.43;1.50;;;12.40;71.30;;;;;;20905172;28;20241;-67
2022/04/07 18:43:21;;;;;;;6.13;1.50;;;12.40;71.30;;;;;;20912645;28;20575;-66
2022/04/07 18:53:23;;;;;;;4.23;1.50;;;12.40;72.10;;;;;;20912365;28;20240;-66
2022/04/07 19:03:25;;;;;;;3.53;1.10;;;12.30;70.60;;;;;;20911396;28;20659;-66
2022/04/07 19:13:27;;;;;;;6.07;1.13;;;12.20;66.30;;;;;;20908732;28;20243;-66
2022/04/07 19:23:29;;;;;;;4.60;1.20;;;12.10;59.20;;;;;;20909814;28;20208;-66
2022/04/07 19:33:31;;;;;;;3.57;1.00;;;12.10;58.60;;;;;;20908592;28;20241;-66
2022/04/07 19:43:33;;;;;;;2.70;1.43;;;12.10;58.20;;;;;;20908384;28;20209;-65
2022/04/07 19:53:35;;;;;;;3.10;1.33;;;12.00;57.80;;;;;;20908504;28;20584;-67
2022/04/07 20:03:37;;;;;;;3.50;1.33;;;12.00;58.10;;;;;;20908116;28;20233;-68
2022/04/07 20:13:39;;;;;;;3.07;1.30;;;11.90;55.10;;;;;;20907226;28;20235;-67
2022/04/07 20:23:40;;;;;;;3.80;1.30;;;11.80;53.90;;;;;;20856032;28;20217;-65
2022/04/07 20:33:42;;;;;;;1.97;1.20;;;11.70;53.10;;;;;;20838775;28;20746;-65
2022/04/07 20:44:04;;;;;;;2.43;1.10;;;11.70;52.40;;;;;;20840060;28;20243;-65
2022/04/07 20:54:06;;;;;;;3.73;1.27;;;11.60;52.30;;;;;;20838191;28;20832;-64
2022/04/07 21:04:08;;;;;;;4.63;1.30;;;11.60;51.30;;;;;;20837862;28;20224;-64
2022/04/07 21:14:11;;;;;;;3.10;1.23;;;11.50;50.80;;;;;;20836765;28;20240;-65
2022/04/07 21:24:13;;;;;;;4.63;1.10;;;11.40;50.30;;;;;;20836282;28;20217;-65
2022/04/07 21:34:15;;;;;;;3.03;1.40;;;11.40;50.80;;;;;;20835072;28;20328;-67
2022/04/07 21:44:17;;;;;;;2.13;1.20;;;11.30;51.20;;;;;;20911191;28;20275;-65
2022/04/07 21:54:19;;;;;;;4.17;1.47;;;11.30;52.30;;;;;;20916338;28;20236;-64
2022/04/07 22:04:20;;;;;;;3.10;1.20;;;11.30;52.70;;;;;;20915963;28;20204;-66
2022/04/07 22:14:22;;;;;;;3.70;1.33;;;11.30;51.20;;;;;;20913473;28;20247;-66
2022/04/07 22:24:24;;;;;;;4.93;1.53;;;11.20;50.80;;;;;;20894309;28;20258;-65
2022/04/07 22:34:26;;;;;;;3.37;1.30;;;11.20;50.60;;;;;;20913048;28;20233;-64
2022/04/07 22:44:27;;;;;;;6.50;1.37;;;11.10;50.60;;;;;;20911993;28;20212;-67
2022/04/07 22:54:29;;;;;;;4.60;1.47;;;11.00;48.90;;;;;;20911447;28;20236;-69
2022/04/07 23:04:31;;;;;;;9.57;1.30;;;10.90;48.60;;;;;;20911260;28;20215;-68
2022/04/07 23:14:33;;;;;;;4.03;1.33;;;10.90;48.60;;;;;;20911722;28;20695;-66
2022/04/07 23:24:35;;;;;;;5.60;1.40;;;10.90;49.30;;;;;;20913886;28;20211;-69
2022/04/07 23:34:37;;;;;;;4.50;1.53;;;10.90;49.40;;;;;;20913419;28;20637;-66
2022/04/07 23:44:43;;;;;;;5.60;1.20;;;10.80;49.60;;;;;;20912417;28;20214;-67
2022/04/07 23:54:45;;;;;;;4.47;1.33;;;10.80;50.30;;;;;;20916465;28;20231;-67
